createdAt,value
2024-04-30T00:02:09.488Z,62.21
2024-04-30T00:04:36.479Z,62.83
2024-04-30T00:07:03.508Z,63.25
2024-04-30T00:09:30.302Z,62.57
2024-04-30T00:11:57.095Z,63.18
2024-04-30T00:14:23.842Z,63.18
2024-04-30T00:16:50.633Z,62.83
2024-04-30T00:19:17.435Z,63.33
2024-04-30T00:21:44.250Z,63.38
2024-04-30T00:24:12.701Z,63.22
2024-04-30T00:26:39.663Z,63.58
2024-04-30T00:29:06.590Z,64.25
2024-04-30T00:31:33.700Z,63.69
2024-04-30T00:34:00.627Z,64.23
2024-04-30T00:36:27.496Z,64.28
2024-04-30T00:38:54.975Z,64.19
2024-04-30T00:41:21.980Z,64.69
2024-04-30T00:43:48.757Z,64.67
2024-04-30T00:46:15.778Z,65.23
2024-04-30T00:48:44.526Z,64.80
2024-04-30T00:51:13.603Z,64.72
2024-04-30T00:53:43.364Z,64.90
2024-04-30T00:56:10.337Z,65.25
2024-04-30T00:58:37.875Z,65.51
2024-04-30T01:01:05.069Z,65.79
2024-04-30T01:03:32.040Z,65.79
2024-04-30T01:05:59.090Z,65.64
2024-04-30T01:08:25.838Z,65.70
2024-04-30T01:10:52.613Z,65.47
2024-04-30T01:13:19.423Z,65.44
2024-04-30T01:15:48.209Z,65.73
2024-04-30T01:18:15.625Z,66.33
2024-04-30T01:20:42.466Z,66.17
2024-04-30T01:23:09.224Z,65.80
2024-04-30T01:25:36.162Z,65.79
2024-04-30T01:28:03.223Z,66.09
2024-04-30T01:30:30.163Z,65.94
2024-04-30T01:32:57.184Z,66.12
2024-04-30T01:35:23.992Z,66.25
2024-04-30T01:37:50.744Z,66.48
2024-04-30T01:40:18.422Z,66.66
2024-04-30T01:42:45.278Z,67.00
2024-04-30T01:45:12.080Z,66.34
2024-04-30T01:47:38.890Z,66.10
2024-04-30T01:50:07.226Z,66.32
2024-04-30T01:52:34.294Z,66.01
2024-04-30T01:55:01.340Z,66.13
2024-04-30T01:57:28.261Z,66.60
2024-04-30T01:59:55.016Z,66.19
2024-04-30T02:02:21.914Z,66.21
2024-04-30T02:04:53.191Z,66.24
2024-04-30T02:07:20.974Z,66.18
2024-04-30T02:09:47.883Z,66.85
2024-04-30T02:12:14.678Z,66.31
2024-04-30T02:14:42.050Z,66.08
2024-04-30T02:17:08.908Z,66.83
2024-04-30T02:19:35.729Z,66.67
2024-04-30T02:22:02.648Z,66.81
2024-04-30T02:24:29.519Z,66.51
2024-04-30T02:26:56.324Z,66.13
2024-04-30T02:29:23.142Z,66.73
2024-04-30T02:32:08.299Z,66.36
2024-04-30T02:34:35.214Z,66.85
2024-04-30T02:37:02.160Z,66.78
2024-04-30T02:39:29.016Z,67.25
2024-04-30T02:41:55.861Z,67.42
2024-04-30T02:44:22.647Z,67.61
2024-04-30T02:46:49.634Z,67.23
2024-04-30T02:49:16.453Z,67.79
2024-04-30T02:51:43.283Z,67.94
2024-04-30T02:54:10.059Z,68.01
2024-04-30T02:56:36.838Z,68.23
2024-04-30T02:59:04.586Z,68.33
2024-04-30T03:01:31.407Z,68.76
2024-04-30T03:03:58.313Z,68.33
2024-04-30T03:06:25.198Z,68.81
2024-04-30T03:08:51.966Z,68.75
2024-04-30T03:11:18.852Z,69.12
2024-04-30T03:13:46.111Z,69.43
2024-04-30T03:16:12.970Z,69.62
2024-04-30T03:18:41.734Z,69.74
2024-04-30T03:21:09.551Z,69.06
2024-04-30T03:23:36.495Z,69.44
2024-04-30T03:26:03.427Z,69.69
2024-04-30T03:28:30.347Z,69.83
2024-04-30T03:30:58.970Z,69.91
2024-04-30T03:33:26.120Z,69.99
2024-04-30T03:35:52.977Z,69.87
2024-04-30T03:38:19.725Z,70.17
2024-04-30T03:40:46.606Z,70.52
2024-04-30T03:43:13.391Z,70.09
2024-04-30T03:45:40.371Z,70.70
2024-04-30T03:48:07.514Z,70.79
2024-04-30T03:50:34.297Z,71.07
2024-04-30T03:53:01.523Z,70.99
2024-04-30T03:55:28.301Z,71.45
2024-04-30T03:57:55.052Z,70.78
2024-04-30T04:00:21.874Z,70.62
2024-04-30T04:02:48.714Z,71.07
2024-04-30T04:05:15.523Z,70.11
2024-04-30T04:07:42.355Z,70.63
2024-04-30T04:10:09.189Z,70.07
2024-04-30T04:12:54.658Z,70.51
2024-04-30T04:15:21.399Z,70.64
2024-04-30T04:17:48.674Z,69.51
2024-04-30T04:20:15.498Z,69.99
2024-04-30T04:22:42.374Z,69.62
2024-04-30T04:25:09.227Z,69.60
2024-04-30T04:27:36.071Z,69.38
2024-04-30T04:30:02.933Z,69.54
2024-04-30T04:32:29.780Z,69.36
2024-04-30T04:34:56.597Z,69.44
2024-04-30T04:37:26.671Z,69.53
2024-04-30T04:39:54.258Z,69.05
2024-04-30T04:42:21.077Z,69.56
2024-04-30T04:44:47.865Z,68.52
2024-04-30T04:47:14.646Z,68.61
2024-04-30T04:49:41.430Z,67.29
2024-04-30T04:52:08.349Z,67.27
2024-04-30T04:54:35.187Z,68.15
2024-04-30T04:57:01.981Z,67.66
2024-04-30T04:59:28.760Z,67.94
2024-04-30T05:01:55.687Z,66.57
2024-04-30T05:04:22.800Z,66.69
2024-04-30T05:06:51.499Z,66.90
2024-04-30T05:09:19.067Z,66.06
2024-04-30T05:11:47.044Z,65.51
2024-04-30T05:14:13.883Z,65.22
2024-04-30T05:16:41.038Z,65.75
2024-04-30T05:19:07.930Z,65.58
2024-04-30T05:21:34.690Z,64.96
2024-04-30T05:24:01.527Z,64.40
2024-04-30T05:26:28.297Z,65.36
2024-04-30T05:28:55.034Z,64.48
2024-04-30T05:31:21.849Z,64.13
2024-04-30T05:33:48.737Z,64.10
2024-04-30T05:36:15.547Z,64.84
2024-04-30T05:38:42.312Z,63.07
2024-04-30T05:41:09.112Z,64.31
2024-04-30T05:43:35.978Z,63.82
2024-04-30T05:46:02.952Z,63.15
2024-04-30T05:48:29.738Z,62.99
2024-04-30T05:50:56.549Z,62.89
2024-04-30T05:53:23.378Z,62.15
2024-04-30T05:55:50.263Z,61.68
2024-04-30T05:58:17.053Z,61.22
2024-04-30T06:00:43.893Z,61.92
2024-04-30T06:03:10.974Z,61.57
2024-04-30T06:05:37.955Z,61.45
2024-04-30T06:08:05.309Z,61.82
2024-04-30T06:10:32.147Z,60.57
2024-04-30T06:12:58.917Z,60.38
2024-04-30T06:15:25.704Z,60.44
2024-04-30T06:17:52.566Z,59.12
2024-04-30T06:20:19.505Z,59.68
2024-04-30T06:22:46.460Z,59.76
2024-04-30T06:25:13.334Z,59.27
2024-04-30T06:27:40.136Z,57.48
2024-04-30T06:30:07.694Z,58.01
2024-04-30T06:32:34.594Z,58.69
2024-04-30T06:35:01.586Z,57.72
2024-04-30T06:37:28.496Z,56.90
2024-04-30T06:39:55.334Z,57.04
2024-04-30T06:42:22.099Z,57.06
2024-04-30T06:44:48.959Z,57.42
2024-04-30T06:47:15.768Z,56.02
2024-04-30T06:49:42.595Z,57.17
2024-04-30T06:52:09.443Z,56.32
2024-04-30T06:54:36.603Z,55.91
2024-04-30T06:57:03.443Z,54.78
2024-04-30T06:59:30.263Z,54.96
2024-04-30T07:01:57.071Z,53.98
2024-04-30T07:04:23.923Z,53.53
2024-04-30T07:06:50.743Z,53.13
2024-04-30T07:09:17.520Z,53.00
2024-04-30T07:11:44.405Z,52.74
2024-04-30T07:14:11.335Z,51.36
2024-04-30T07:16:48.353Z,51.37
2024-04-30T07:19:19.692Z,51.47
2024-04-30T07:21:46.529Z,51.18
2024-04-30T07:24:13.362Z,51.06
2024-04-30T07:26:40.160Z,51.26
2024-04-30T07:29:06.954Z,49.86
2024-04-30T07:31:33.836Z,49.88
2024-04-30T07:34:03.452Z,50.29
2024-04-30T07:36:30.725Z,48.54
2024-04-30T07:38:57.536Z,49.18
2024-04-30T07:41:24.277Z,48.37
2024-04-30T07:43:51.050Z,48.39
2024-04-30T07:46:20.141Z,48.59
2024-04-30T07:48:47.201Z,47.74
2024-04-30T07:51:13.981Z,47.50
2024-04-30T07:53:40.803Z,46.91
2024-04-30T07:56:07.691Z,47.24
2024-04-30T07:58:34.551Z,47.98
2024-04-30T08:01:03.506Z,48.71
2024-04-30T08:03:30.483Z,48.67
2024-04-30T08:06:01.291Z,48.68
2024-04-30T08:08:33.935Z,46.80
2024-04-30T08:11:00.700Z,46.59
2024-04-30T08:13:27.584Z,47.14
2024-04-30T08:15:54.477Z,46.66
2024-04-30T08:18:21.368Z,45.95
2024-04-30T08:20:48.228Z,46.24
2024-04-30T08:23:14.989Z,45.55
2024-04-30T08:25:41.845Z,45.00
2024-04-30T08:28:10.028Z,45.26
2024-04-30T08:30:37.186Z,43.91
2024-04-30T08:33:04.848Z,44.07
2024-04-30T08:35:31.630Z,44.36
2024-04-30T08:38:01.248Z,43.24
2024-04-30T08:40:29.179Z,44.21
2024-04-30T08:42:59.027Z,43.39
2024-04-30T08:45:27.737Z,44.06
2024-04-30T08:47:56.753Z,42.98
2024-04-30T08:50:26.974Z,42.63
2024-04-30T08:52:55.867Z,42.12
2024-04-30T08:55:23.815Z,42.64
2024-04-30T08:57:50.896Z,42.50
2024-04-30T09:00:17.794Z,42.18
2024-04-30T09:02:53.401Z,42.11
2024-04-30T09:05:21.629Z,41.64
2024-04-30T09:07:48.584Z,41.46
2024-04-30T09:10:15.423Z,41.68
2024-04-30T09:12:42.206Z,42.71
2024-04-30T09:15:19.687Z,41.18
2024-04-30T09:17:46.762Z,41.97
2024-04-30T09:20:13.634Z,41.42
2024-04-30T09:22:54.456Z,40.96
2024-04-30T09:25:41.747Z,39.91
2024-04-30T09:28:17.874Z,41.17
2024-04-30T09:30:55.693Z,39.79
2024-04-30T09:33:23.604Z,40.38
2024-04-30T09:36:19.835Z,40.26
2024-04-30T09:38:47.899Z,39.52
2024-04-30T09:41:14.737Z,39.86
2024-04-30T09:43:42.305Z,40.23
2024-04-30T09:46:09.434Z,38.78
2024-04-30T09:48:36.505Z,39.16
2024-04-30T09:51:08.297Z,38.74
2024-04-30T09:53:37.495Z,38.09
2024-04-30T09:56:09.598Z,38.06
2024-04-30T09:58:38.077Z,37.89
2024-04-30T10:01:07.135Z,37.59
2024-04-30T10:03:38.857Z,38.03
2024-04-30T10:06:08.054Z,37.41
2024-04-30T10:08:36.498Z,37.35
2024-04-30T10:11:07.803Z,37.19
2024-04-30T10:13:34.740Z,37.33
2024-04-30T10:16:12.361Z,36.82
2024-04-30T10:18:39.224Z,36.29
2024-04-30T10:21:12.971Z,36.89
2024-04-30T10:23:47.070Z,36.61
2024-04-30T10:26:15.656Z,36.93
2024-04-30T10:28:42.851Z,37.27
2024-04-30T10:31:11.816Z,36.82
2024-04-30T10:33:39.703Z,36.15
2024-04-30T10:36:09.557Z,35.94
2024-04-30T10:38:36.558Z,35.86
2024-04-30T10:41:04.843Z,36.19
2024-04-30T10:43:31.645Z,35.58
2024-04-30T10:46:18.815Z,34.39
2024-04-30T10:48:53.186Z,34.36
2024-04-30T10:51:21.514Z,33.94
2024-04-30T10:53:49.573Z,33.82
2024-04-30T10:56:17.024Z,34.48
2024-04-30T10:58:57.607Z,33.64
2024-04-30T11:01:26.248Z,33.61
2024-04-30T11:04:04.904Z,34.32
2024-04-30T11:06:43.047Z,33.90
2024-04-30T11:09:12.496Z,34.19
2024-04-30T11:11:48.898Z,34.28
2024-04-30T11:14:17.221Z,34.02
2024-04-30T11:16:45.389Z,33.45
2024-04-30T11:19:13.237Z,33.95
2024-04-30T11:21:40.368Z,33.80
2024-04-30T11:24:08.297Z,32.77
2024-04-30T11:26:35.148Z,32.89
2024-04-30T11:29:15.922Z,32.70
2024-04-30T11:31:48.994Z,33.26
2024-04-30T11:34:15.873Z,33.11
2024-04-30T11:36:42.924Z,32.93
2024-04-30T11:39:13.123Z,32.10
2024-04-30T11:41:43.564Z,32.98
2024-04-30T11:44:15.302Z,33.38
2024-04-30T11:46:42.242Z,31.63
2024-04-30T11:49:09.260Z,31.22
2024-04-30T11:51:36.153Z,31.63
2024-04-30T11:54:02.951Z,32.21
2024-04-30T11:56:31.955Z,30.87
2024-04-30T11:58:58.838Z,31.13
2024-04-30T12:01:25.820Z,30.98
2024-04-30T12:03:52.747Z,30.77
2024-04-30T12:06:19.843Z,31.89
2024-04-30T12:08:46.671Z,30.07
2024-04-30T12:11:13.787Z,29.82
2024-04-30T12:13:40.904Z,30.22
2024-04-30T12:16:08.201Z,29.78
2024-04-30T12:18:35.110Z,30.62
2024-04-30T12:21:02.019Z,29.90
2024-04-30T12:23:29.010Z,29.20
2024-04-30T12:25:55.935Z,28.31
2024-04-30T12:28:22.851Z,28.32
2024-04-30T12:30:49.634Z,28.55
2024-04-30T12:33:18.528Z,28.43
2024-04-30T12:35:46.703Z,29.03
2024-04-30T12:38:14.673Z,28.31
2024-04-30T12:40:42.499Z,28.26
2024-04-30T12:43:09.573Z,28.64
2024-04-30T12:45:36.406Z,28.08
2024-04-30T12:48:04.265Z,27.40
2024-04-30T12:50:31.264Z,27.38
2024-04-30T12:52:58.186Z,27.32
2024-04-30T12:55:25.211Z,26.91
2024-04-30T12:57:52.082Z,26.65
2024-04-30T13:00:19.067Z,26.42
2024-04-30T13:02:46.341Z,26.94
2024-04-30T13:05:13.409Z,27.72
2024-04-30T13:07:40.523Z,27.30
2024-04-30T13:10:07.678Z,27.03
2024-04-30T13:12:36.064Z,27.09
2024-04-30T13:15:03.473Z,27.21
2024-04-30T13:17:31.492Z,27.25
2024-04-30T13:19:58.364Z,27.88
2024-04-30T13:22:25.472Z,27.15
2024-04-30T13:24:52.297Z,28.12
2024-04-30T13:27:19.062Z,26.99
2024-04-30T13:29:45.844Z,27.28
2024-04-30T13:32:12.700Z,27.22
2024-04-30T13:34:39.610Z,27.96
2024-04-30T13:37:06.676Z,27.69
2024-04-30T13:39:33.860Z,26.36
2024-04-30T13:42:00.684Z,27.43
2024-04-30T13:44:27.544Z,27.22
2024-04-30T13:46:54.357Z,27.90
2024-04-30T13:49:21.339Z,26.42
2024-04-30T13:51:48.125Z,27.47
2024-04-30T13:54:15.008Z,26.97
2024-04-30T13:56:41.910Z,26.56
2024-04-30T13:59:16.754Z,27.10
2024-04-30T14:01:45.629Z,28.38
2024-04-30T14:04:12.597Z,28.24
2024-04-30T14:06:42.327Z,27.46
2024-04-30T14:09:10.590Z,27.90
2024-04-30T14:11:38.024Z,28.58
2024-04-30T14:14:06.572Z,28.75
2024-04-30T14:16:34.045Z,27.35
2024-04-30T14:19:01.059Z,27.58
2024-04-30T14:21:28.107Z,27.33
2024-04-30T14:23:56.545Z,27.35
2024-04-30T14:26:23.322Z,27.58
2024-04-30T14:28:50.145Z,27.60
2024-04-30T14:31:19.136Z,27.77
2024-04-30T14:33:47.753Z,27.89
2024-04-30T14:36:37.374Z,27.45
2024-04-30T14:39:07.354Z,27.67
2024-04-30T14:41:45.115Z,27.64
2024-04-30T14:44:12.647Z,28.39
2024-04-30T14:46:40.992Z,28.37
2024-04-30T14:49:07.971Z,28.43
2024-04-30T14:51:35.354Z,28.53
2024-04-30T14:54:02.757Z,28.30
2024-04-30T14:56:29.627Z,28.25
2024-04-30T14:58:56.464Z,28.27
2024-04-30T15:01:23.345Z,27.75
2024-04-30T15:03:50.269Z,28.09
2024-04-30T15:06:21.703Z,29.07
2024-04-30T15:08:49.555Z,28.86
2024-04-30T15:11:26.209Z,29.29
2024-04-30T15:13:53.893Z,28.83
2024-04-30T15:16:21.925Z,28.33
2024-04-30T15:18:49.036Z,28.59
2024-04-30T15:21:16.391Z,28.87
2024-04-30T15:23:44.853Z,29.05
2024-04-30T15:26:12.916Z,28.12
2024-04-30T15:28:39.955Z,28.65
2024-04-30T15:31:07.215Z,27.96
2024-04-30T15:33:36.695Z,28.52
2024-04-30T15:36:05.901Z,28.83
2024-04-30T15:38:32.844Z,29.22
2024-04-30T15:41:00.485Z,28.49
2024-04-30T15:43:29.985Z,28.48
2024-04-30T15:45:57.541Z,29.16
2024-04-30T15:48:24.712Z,28.33
2024-04-30T15:50:51.907Z,28.17
2024-04-30T15:53:22.367Z,28.38
2024-04-30T15:56:04.936Z,28.55
2024-04-30T15:58:36.628Z,28.59
2024-04-30T16:01:03.998Z,27.86
2024-04-30T16:03:30.999Z,28.35
2024-04-30T16:05:57.835Z,28.88
2024-04-30T16:08:24.653Z,28.13
2024-04-30T16:10:51.494Z,28.93
2024-04-30T16:13:21.571Z,28.05
2024-04-30T16:15:50.468Z,28.35
2024-04-30T16:18:19.732Z,28.77
2024-04-30T16:20:46.914Z,28.75
2024-04-30T16:23:13.675Z,28.18
2024-04-30T16:25:42.189Z,26.99
2024-04-30T16:28:10.897Z,27.45
2024-04-30T16:30:37.669Z,27.74
2024-04-30T16:33:04.783Z,27.16
2024-04-30T16:35:31.597Z,27.74
2024-04-30T16:37:58.422Z,27.59
2024-04-30T16:40:25.156Z,27.76
2024-04-30T16:42:51.954Z,27.71
2024-04-30T16:45:18.831Z,27.57
2024-04-30T16:47:45.916Z,27.56
2024-04-30T16:50:12.806Z,28.10
2024-04-30T16:52:39.570Z,29.19
2024-04-30T16:55:06.713Z,30.22
2024-04-30T16:57:34.535Z,30.40
2024-04-30T17:00:01.384Z,31.12
2024-04-30T17:02:28.188Z,30.29
2024-04-30T17:04:55.620Z,31.29
2024-04-30T17:07:22.419Z,31.29
2024-04-30T17:09:49.406Z,32.49
2024-04-30T17:12:16.199Z,32.26
2024-04-30T17:14:42.992Z,32.02
2024-04-30T17:17:10.525Z,32.04
2024-04-30T17:19:37.363Z,32.29
2024-04-30T17:22:04.395Z,33.35
2024-04-30T17:24:31.249Z,33.54
2024-04-30T17:26:58.915Z,33.68
2024-04-30T17:29:26.066Z,33.83
2024-04-30T17:31:53.052Z,34.15
2024-04-30T17:34:20.028Z,35.02
2024-04-30T17:36:50.024Z,33.88
2024-04-30T17:39:17.625Z,33.21
2024-04-30T17:41:45.659Z,33.28
2024-04-30T17:44:12.584Z,34.10
2024-04-30T17:46:43.550Z,35.03
2024-04-30T17:49:14.034Z,35.67
2024-04-30T17:51:42.114Z,35.88
2024-04-30T17:54:09.242Z,36.70
2024-04-30T17:56:39.748Z,37.22
2024-04-30T17:59:07.473Z,36.96
2024-04-30T18:01:34.393Z,37.58
2024-04-30T18:04:01.344Z,38.05
2024-04-30T18:06:28.640Z,38.26
2024-04-30T18:08:59.020Z,38.80
2024-04-30T18:11:29.153Z,39.50
2024-04-30T18:13:56.782Z,39.53
2024-04-30T18:16:23.796Z,39.81
2024-04-30T18:18:51.796Z,40.49
2024-04-30T18:21:20.236Z,41.03
2024-04-30T18:23:47.355Z,41.43
2024-04-30T18:26:14.543Z,41.56
2024-04-30T18:28:44.553Z,42.12
2024-04-30T18:31:11.320Z,42.28
2024-04-30T18:33:38.198Z,43.17
2024-04-30T18:36:05.259Z,43.58
2024-04-30T18:38:35.600Z,43.80
2024-04-30T18:41:13.399Z,43.93
2024-04-30T18:43:47.549Z,44.37
2024-04-30T18:46:15.486Z,44.82
2024-04-30T18:48:44.268Z,44.54
2024-04-30T18:51:12.093Z,44.70
2024-04-30T18:53:41.531Z,44.86
2024-04-30T18:56:09.659Z,45.30
2024-04-30T18:58:36.812Z,45.54
2024-04-30T19:01:03.908Z,46.36
2024-04-30T19:03:30.856Z,46.99
2024-04-30T19:05:57.613Z,46.58
2024-04-30T19:08:24.399Z,47.02
2024-04-30T19:10:51.275Z,46.93
2024-04-30T19:13:18.251Z,46.91
2024-04-30T19:15:46.505Z,46.82
2024-04-30T19:18:13.461Z,45.68
2024-04-30T19:20:40.366Z,45.45
2024-04-30T19:23:07.146Z,43.67
2024-04-30T19:25:33.955Z,43.68
2024-04-30T19:28:01.206Z,42.99
2024-04-30T19:30:28.052Z,42.85
2024-04-30T19:32:54.967Z,42.60
2024-04-30T19:35:21.832Z,42.25
2024-04-30T19:37:48.584Z,42.70
2024-04-30T19:40:15.424Z,42.86
2024-04-30T19:42:42.267Z,43.03
2024-04-30T19:45:09.236Z,42.92
2024-04-30T19:47:36.072Z,43.11
2024-04-30T19:50:02.953Z,43.52
2024-04-30T19:52:29.783Z,42.97
2024-04-30T19:54:56.669Z,43.13
2024-04-30T19:57:23.530Z,43.17
2024-04-30T19:59:50.353Z,43.51
2024-04-30T20:02:17.293Z,43.67
2024-04-30T20:04:45.182Z,43.77
2024-04-30T20:07:12.703Z,43.47
2024-04-30T20:09:39.585Z,43.44
2024-04-30T20:12:06.589Z,43.45
2024-04-30T20:14:33.331Z,43.58
2024-04-30T20:17:00.141Z,43.77
2024-04-30T20:19:26.950Z,43.72
2024-04-30T20:21:53.834Z,43.41
2024-04-30T20:24:23.063Z,44.05
2024-04-30T20:26:50.236Z,44.11
2024-04-30T20:29:17.218Z,44.22
2024-04-30T20:31:44.603Z,45.30
2024-04-30T20:34:11.483Z,45.10
2024-04-30T20:36:38.304Z,45.18
2024-04-30T20:39:06.068Z,44.67
2024-04-30T20:41:32.845Z,44.73
2024-04-30T20:43:59.676Z,43.69
2024-04-30T20:46:26.477Z,43.53
2024-04-30T20:48:53.374Z,43.17
2024-04-30T20:51:20.494Z,43.13
2024-04-30T20:53:47.429Z,42.87
2024-04-30T20:56:14.175Z,43.04
2024-04-30T20:58:41.008Z,43.55
2024-04-30T21:01:07.909Z,43.87
2024-04-30T21:03:34.791Z,44.07
2024-04-30T21:06:01.619Z,44.91
2024-04-30T21:08:28.368Z,45.54
2024-04-30T21:10:55.254Z,46.25
2024-04-30T21:13:22.067Z,46.57
2024-04-30T21:15:48.930Z,46.83
2024-04-30T21:18:15.960Z,47.82
2024-04-30T21:20:42.735Z,48.66
2024-04-30T21:23:09.795Z,49.52
2024-04-30T21:25:36.942Z,50.10
2024-04-30T21:28:03.901Z,50.37
2024-04-30T21:30:30.770Z,50.39
2024-04-30T21:32:57.615Z,50.64
2024-04-30T21:35:24.799Z,50.82
2024-04-30T21:37:51.550Z,51.19
2024-04-30T21:40:18.288Z,51.54
2024-04-30T21:42:45.144Z,51.79
2024-04-30T21:45:11.923Z,52.46
2024-04-30T21:47:38.858Z,52.82
2024-04-30T21:50:05.983Z,52.99
2024-04-30T21:52:32.763Z,53.23
2024-04-30T21:54:59.575Z,53.11
2024-04-30T21:57:26.398Z,52.92
2024-04-30T21:59:53.250Z,53.76
2024-04-30T22:02:20.865Z,54.17
2024-04-30T22:04:47.688Z,54.72
2024-04-30T22:07:16.874Z,54.99
2024-04-30T22:09:44.477Z,55.49
2024-04-30T22:12:11.348Z,56.26
2024-04-30T22:14:38.100Z,57.32
2024-04-30T22:17:05.123Z,57.14
2024-04-30T22:19:32.080Z,57.47
2024-04-30T22:21:58.864Z,57.63
2024-04-30T22:24:25.747Z,58.07
2024-04-30T22:26:52.491Z,58.38
2024-04-30T22:29:22.427Z,58.56
2024-04-30T22:31:49.801Z,59.58
2024-04-30T22:34:16.681Z,59.82
2024-04-30T22:36:43.620Z,59.83
2024-04-30T22:39:11.183Z,59.54
2024-04-30T22:41:37.985Z,59.05
2024-04-30T22:44:04.827Z,59.12
2024-04-30T22:46:31.625Z,58.75
2024-04-30T22:48:58.428Z,59.24
2024-04-30T22:51:31.092Z,59.96
2024-04-30T22:53:58.359Z,59.79
2024-04-30T22:56:25.220Z,60.01
2024-04-30T22:58:51.979Z,60.31
2024-04-30T23:01:18.940Z,60.48
2024-04-30T23:03:45.839Z,60.76
2024-04-30T23:06:12.601Z,60.92
2024-04-30T23:08:40.011Z,61.15
2024-04-30T23:11:06.843Z,61.10
2024-04-30T23:13:33.635Z,60.44
2024-04-30T23:16:02.064Z,60.44
2024-04-30T23:18:29.065Z,60.09
2024-04-30T23:20:56.150Z,59.67
2024-04-30T23:23:22.921Z,59.83
2024-04-30T23:25:49.678Z,59.01
2024-04-30T23:28:16.483Z,58.21
2024-04-30T23:30:43.262Z,56.31
2024-04-30T23:33:10.084Z,56.58
2024-04-30T23:35:36.826Z,56.62
2024-04-30T23:38:03.841Z,56.48
2024-04-30T23:40:30.602Z,56.21
2024-04-30T23:42:57.771Z,56.15
2024-04-30T23:45:24.614Z,55.84
2024-04-30T23:47:52.011Z,55.90
2024-04-30T23:50:18.811Z,55.80
2024-04-30T23:52:45.628Z,56.24
2024-04-30T23:55:12.386Z,56.55
2024-04-30T23:57:39.188Z,56.86
